首页
METAR-TAF:

METAR-TAF

机场 :

威克島, 美国

纬度: 19-17N, 经度: 166-39E, 海拔: 4米

当前天气观测

该预报发布于52分钟前的10:55 UTC
风速13节,风向东转东北
温度 28°C
湿度 79%
气压 1017 hPa
能見度: 11.3公里
散云层高于2100英尺

METAR: PWAK 181055Z AUTO 07013KT 7SM SCT021 28/24 A3002 RMK AO2 SLP168 T02820235

时间: 23:47 (11:47 UTC)

预报

该预报发布于5小时和47分钟前的06:00 UTC
预报有效从18日的 06点(UTC)到 19日的 12点(UTC)
风速14节,风向东转东北
能见度10公里或以上
散云层高于2500英尺

TAF: PWAK 180600Z 1806/1912 06014KT 9999 SCT025 QNH2996INS TX32/1904Z TN27/1814Z

超过4000个机场的气象观测和天气预报(METAR&TAF报告)。

可查询的气象台以黄色和红色小点在地图上表示。

将鼠标移到小点上方,可查看气象台名称。

然后点击查看天气观测和预报。

如需切换地图:点击带黑十字的绿色按钮放大地图;点击带横线的绿色按钮缩小地图;或者点击绿色箭头查看邻近地区的地图。


METAR-TAF: